Time;durP1;ratioP1;P1;durP2;ratioP2;P2;SDS_P1;SDS_P2;PMS_P1;PMS_P2;Temp;Humidity;BMP_temperature;BMP_pressure;BME280_temperature;BME280_humidity;BME280_pressure;Samples;Min_cycle;Max_cycle;Signal;HPM_P1;HPM_P2
2022/11/08 00:02:05;;;;;;;10.50;9.28;;;;;;;11.19;58.44;102247.30;1556124;91;21089;-50
2022/11/08 00:04:33;;;;;;;12.00;9.33;;;;;;;11.23;58.41;102254.23;1570975;91;21097;-51
2022/11/08 00:15:15;;;;;;;11.83;9.65;;;;;;;11.30;58.79;102259.02;1634078;86;21129;-50
2022/11/08 00:17:42;;;;;;;11.63;9.73;;;;;;;11.29;58.90;102263.34;1628677;86;21130;-51
2022/11/08 00:20:10;;;;;;;11.45;10.13;;;;;;;11.31;58.89;102259.00;1671072;83;21101;-51
2022/11/08 00:22:39;;;;;;;12.03;9.40;;;;;;;11.35;58.80;102255.52;1723340;81;21065;-52
2022/11/08 00:25:06;;;;;;;12.13;10.15;;;;;;;11.40;58.58;102256.41;1763524;80;21022;-51
2022/11/08 00:27:33;;;;;;;11.12;9.45;;;;;;;11.43;58.56;102259.02;1754589;81;21017;-51
2022/11/08 00:29:59;;;;;;;12.70;9.83;;;;;;;11.44;58.50;102254.65;1745765;81;21047;-51
2022/11/08 00:32:26;;;;;;;11.75;10.48;;;;;;;11.42;58.46;102252.05;1758435;80;21084;-51
2022/11/08 00:34:53;;;;;;;11.65;10.00;;;;;;;11.41;58.35;102253.37;1755394;80;21035;-51
2022/11/08 00:37:21;;;;;;;12.07;10.50;;;;;;;11.37;58.29;102255.09;1748028;80;21522;-51
2022/11/08 00:39:49;;;;;;;11.85;10.18;;;;;;;11.37;58.22;102253.78;1768218;80;21054;-51
2022/11/08 00:42:17;;;;;;;12.50;10.70;;;;;;;11.37;58.03;102253.78;1753310;80;21228;-51
2022/11/08 00:44:43;;;;;;;13.13;10.58;;;;;;;11.38;57.94;102259.45;1759673;80;21098;-51
2022/11/08 00:47:10;;;;;;;14.35;11.00;;;;;;;11.37;57.86;102256.39;1765266;80;21056;-51
2022/11/08 00:49:37;;;;;;;15.03;10.63;;;;;;;11.34;57.86;102255.11;1753376;80;21492;-51
2022/11/08 00:52:04;;;;;;;14.43;10.38;;;;;;;11.33;57.87;102263.78;1746399;80;21078;-51
2022/11/08 00:54:30;;;;;;;14.93;11.15;;;;;;;11.32;57.97;102258.58;1760213;80;21077;-51
2022/11/08 00:56:57;;;;;;;12.40;9.68;;;;;;;11.30;57.99;102254.68;1760324;81;21495;-51
2022/11/08 00:59:23;;;;;;;11.12;9.90;;;;;;;11.28;57.86;102249.91;1764787;80;21487;-51
2022/11/08 01:01:51;;;;;;;12.65;10.82;;;;;;;11.25;57.80;102252.50;1755965;80;21042;-51
2022/11/08 01:04:18;;;;;;;12.05;10.70;;;;;;;11.22;57.73;102251.22;1751431;80;21008;-51
2022/11/08 01:06:46;;;;;;;12.55;10.45;;;;;;;11.16;57.70;102252.95;1748773;80;21056;-51
2022/11/08 01:09:13;;;;;;;12.37;10.25;;;;;;;11.12;57.81;102253.39;1759997;80;20998;-51
2022/11/08 01:11:45;;;;;;;14.55;11.63;;;;;;;11.07;57.97;102247.30;1750323;80;21009;-51
2022/11/08 01:14:10;;;;;;;12.53;10.98;;;;;;;11.04;58.02;102246.02;1764634;80;21522;-51
2022/11/08 01:16:37;;;;;;;13.53;11.93;;;;;;;11.02;58.07;102243.84;1752749;80;21125;-51
2022/11/08 01:19:05;;;;;;;12.65;11.28;;;;;;;10.98;58.27;102240.81;1760299;80;21559;-51
2022/11/08 01:21:31;;;;;;;13.18;11.80;;;;;;;10.96;58.32;102239.94;1738553;81;21563;-51
2022/11/08 01:23:58;;;;;;;14.33;12.90;;;;;;;10.92;58.48;102249.89;1755867;80;21047;-51
2022/11/08 01:26:26;;;;;;;15.75;11.60;;;;;;;10.90;58.54;102250.33;1763272;80;21526;-51
2022/11/08 01:28:54;;;;;;;15.35;12.25;;;;;;;10.89;58.66;102252.52;1759888;80;21072;-51
2022/11/08 01:31:25;;;;;;;14.80;12.73;;;;;;;10.88;58.64;102250.76;1758804;80;21583;-51
2022/11/08 01:33:52;;;;;;;14.33;12.30;;;;;;;10.87;58.68;102252.95;1751463;80;21038;-51
2022/11/08 01:36:22;;;;;;;13.30;11.33;;;;;;;10.87;58.74;102246.44;1754301;80;21057;-52
2022/11/08 01:38:50;;;;;;;15.08;12.30;;;;;;;10.86;58.78;102242.54;1748835;81;21047;-51
2022/11/08 01:41:19;;;;;;;15.68;11.97;;;;;;;10.86;58.73;102244.69;1755981;80;21602;-51
2022/11/08 01:43:54;;;;;;;12.73;11.40;;;;;;;10.84;58.83;102244.27;1762920;80;21042;-51
2022/11/08 01:46:35;;;;;;;15.60;12.03;;;;;;;10.80;58.91;102245.98;1752982;80;21045;-51
2022/11/08 01:49:19;;;;;;;14.33;12.82;;;;;;;10.77;59.06;102242.52;1741460;80;21865;-51
2022/11/08 01:51:55;;;;;;;15.93;12.85;;;;;;;10.72;59.22;102237.30;1760140;80;21049;-51
2022/11/08 01:54:28;;;;;;;16.37;13.98;;;;;;;10.71;59.38;102234.28;1748610;80;21094;-51
2022/11/08 01:56:54;;;;;;;17.98;13.95;;;;;;;10.71;59.36;102232.98;1581634;89;21118;-52
2022/11/08 01:59:21;;;;;;;17.52;14.45;;;;;;;10.71;59.35;102240.78;1584958;89;21117;-51
2022/11/08 02:01:49;;;;;;;19.60;14.50;;;;;;;10.73;59.31;102244.26;1582166;90;21839;-51
2022/11/08 02:04:16;;;;;;;15.55;13.18;;;;;;;10.74;59.31;102230.81;1582133;88;21179;-51
2022/11/08 02:06:42;;;;;;;17.37;13.83;;;;;;;10.76;59.22;102231.23;1585222;89;21138;-51
2022/11/08 02:09:10;;;;;;;19.73;14.87;;;;;;;10.76;59.18;102229.92;1588469;89;21245;-51
2022/11/08 02:11:37;;;;;;;17.85;13.88;;;;;;;10.75;59.44;102226.91;1581093;89;21037;-51
2022/11/08 02:14:04;;;;;;;15.18;13.58;;;;;;;10.76;59.52;102235.12;1581596;89;21065;-51
2022/11/08 02:16:30;;;;;;;18.37;15.68;;;;;;;10.77;59.57;102234.28;1581845;89;21088;-51
2022/11/08 02:18:57;;;;;;;19.80;14.58;;;;;;;10.79;59.74;102236.87;1577549;89;21041;-51
2022/11/08 02:21:30;;;;;;;17.32;14.00;;;;;;;10.80;59.62;102245.14;1577877;89;21292;-51
2022/11/08 02:24:02;;;;;;;17.92;13.53;;;;;;;10.78;59.57;102239.06;1586758;89;21101;-51
2022/11/08 02:26:32;;;;;;;17.67;13.45;;;;;;;10.77;59.67;102240.79;1584661;89;21618;-51
2022/11/08 02:28:59;;;;;;;14.07;12.55;;;;;;;10.77;59.79;102240.79;1555128;90;21708;-52
2022/11/08 02:31:25;;;;;;;17.23;13.90;;;;;;;10.77;59.86;102237.31;1527790;91;21191;-51
2022/11/08 02:33:52;;;;;;;16.42;12.47;;;;;;;10.81;59.84;102249.46;1551558;90;21103;-51
2022/11/08 02:36:21;;;;;;;14.58;13.00;;;;;;;10.86;59.77;102247.75;1528739;92;21527;-51
2022/11/08 02:38:54;;;;;;;14.30;12.80;;;;;;;10.87;59.79;102241.23;1543385;91;21066;-51
2022/11/08 02:41:21;;;;;;;15.18;13.13;;;;;;;10.87;59.91;102243.83;1496278;95;21132;-51
2022/11/08 02:43:48;;;;;;;14.87;13.13;;;;;;;10.88;60.07;102242.95;1478862;95;21124;-51
2022/11/08 02:46:15;;;;;;;15.95;13.55;;;;;;;10.89;60.08;102245.12;1476526;95;21193;-51
2022/11/08 02:48:42;;;;;;;18.70;14.30;;;;;;;10.87;60.16;102240.34;1482975;95;21240;-52
2022/11/08 02:51:10;;;;;;;14.35;12.37;;;;;;;10.91;60.18;102245.99;1520663;92;21435;-51
2022/11/08 02:53:37;;;;;;;17.42;13.13;;;;;;;10.93;60.08;102241.23;1607929;83;21092;-51
2022/11/08 02:56:04;;;;;;;18.20;14.53;;;;;;;10.94;60.17;102240.34;1646200;87;21073;-51
2022/11/08 02:58:31;;;;;;;18.10;13.53;;;;;;;10.93;60.30;102241.66;1667989;83;21589;-51
2022/11/08 03:00:59;;;;;;;17.23;14.05;;;;;;;10.93;60.34;102241.23;1677210;83;21589;-52
2022/11/08 03:03:26;;;;;;;17.25;14.78;;;;;;;10.94;60.27;102245.55;1679281;83;21026;-51
2022/11/08 03:05:54;;;;;;;15.95;13.32;;;;;;;10.93;60.32;102249.05;1689096;83;21108;-51
2022/11/08 03:08:21;;;;;;;17.73;14.28;;;;;;;10.93;60.43;102247.73;1663101;83;21546;-51
2022/11/08 03:10:49;;;;;;;18.05;14.33;;;;;;;10.94;60.54;102246.86;1681668;83;21086;-52
2022/11/08 03:13:16;;;;;;;18.65;14.63;;;;;;;10.94;60.53;102242.10;1645469;86;21065;-52
2022/11/08 03:15:43;;;;;;;18.75;14.98;;;;;;;10.94;60.64;102240.80;1622854;88;21085;-52
2022/11/08 03:18:10;;;;;;;18.20;14.47;;;;;;;10.96;60.68;102244.28;1630984;86;21125;-52
2022/11/08 03:20:36;;;;;;;17.27;14.10;;;;;;;10.94;60.77;102248.61;1639083;86;21534;-51
2022/11/08 03:23:05;;;;;;;19.80;15.50;;;;;;;10.90;60.88;102239.91;1625740;87;21038;-51
2022/11/08 03:25:32;;;;;;;17.40;14.28;;;;;;;10.88;61.10;102240.80;1641882;83;21089;-51
2022/11/08 03:28:05;;;;;;;18.87;15.23;;;;;;;10.89;61.23;102232.98;1696838;83;21043;-51
2022/11/08 03:30:33;;;;;;;16.50;14.43;;;;;;;10.90;61.20;102226.89;1703510;83;21026;-52
2022/11/08 03:33:00;;;;;;;18.45;14.68;;;;;;;10.90;61.20;102221.68;1700995;83;21050;-52
2022/11/08 03:35:26;;;;;;;18.80;14.75;;;;;;;10.92;61.21;102225.61;1698628;83;21094;-51
2022/11/08 03:37:55;;;;;;;17.10;13.83;;;;;;;10.93;61.30;102220.82;1687491;84;21126;-51
2022/11/08 03:40:22;;;;;;;15.78;13.58;;;;;;;10.95;61.33;102224.30;1687889;84;21106;-51
2022/11/08 03:42:50;;;;;;;19.17;14.83;;;;;;;10.96;61.32;102228.22;1689855;83;21086;-52
2022/11/08 03:45:17;;;;;;;14.90;13.30;;;;;;;10.97;61.44;102232.55;1689150;83;21546;-51
2022/11/08 03:47:45;;;;;;;16.15;13.30;;;;;;;10.98;61.52;102234.30;1694635;83;21042;-52
2022/11/08 03:50:13;;;;;;;15.30;13.78;;;;;;;11.01;61.58;102235.59;1692173;83;21046;-51
2022/11/08 03:52:51;;;;;;;16.35;13.10;;;;;;;11.04;61.50;102234.72;1691985;84;21066;-51
2022/11/08 03:55:20;;;;;;;14.18;12.73;;;;;;;11.06;61.54;102233.86;1707458;83;21051;-51
2022/11/08 03:57:48;;;;;;;15.05;13.45;;;;;;;11.12;61.45;102229.95;1696006;83;21059;-51
2022/11/08 04:00:17;;;;;;;14.70;13.05;;;;;;;11.15;61.61;102236.44;1694858;83;21246;-50
2022/11/08 04:02:46;;;;;;;14.93;13.35;;;;;;;11.17;61.67;102234.70;1688834;83;21105;-51
2022/11/08 04:05:13;;;;;;;14.70;13.22;;;;;;;11.17;61.85;102232.09;1701853;83;21619;-52
2022/11/08 04:07:42;;;;;;;16.55;13.60;;;;;;;11.18;61.73;102242.97;1695190;83;21055;-52
2022/11/08 04:10:09;;;;;;;16.12;14.33;;;;;;;11.21;61.68;102236.44;1693243;83;21066;-52
2022/11/08 04:15:27;;;;;;;14.98;12.78;;;;;;;11.20;61.43;102228.62;1664787;85;21110;-52
2022/11/08 04:23:31;;;;;;;15.23;13.10;;;;;;;11.18;61.36;102226.03;1654940;86;21101;-51
2022/11/08 04:26:00;;;;;;;16.65;12.05;;;;;;;11.18;61.38;102228.64;1696357;83;21717;-52
2022/11/08 04:28:30;;;;;;;14.80;12.18;;;;;;;11.19;61.20;102230.36;1704941;83;21023;-52
2022/11/08 04:30:58;;;;;;;13.90;12.28;;;;;;;11.18;61.25;102222.12;1698318;83;21587;-52
2022/11/08 04:33:25;;;;;;;14.33;12.50;;;;;;;11.19;61.21;102226.45;1705073;83;21530;-52
2022/11/08 04:35:52;;;;;;;13.85;12.35;;;;;;;11.20;61.22;102222.98;1702979;83;21026;-51
2022/11/08 04:38:19;;;;;;;13.60;12.07;;;;;;;11.22;61.10;102225.16;1696011;83;21054;-51
2022/11/08 04:40:45;;;;;;;18.05;12.23;;;;;;;11.24;61.12;102231.23;1702207;83;21629;-52
2022/11/08 04:43:12;;;;;;;13.05;11.70;;;;;;;11.27;60.91;102231.22;1694106;83;21562;-53
2022/11/08 04:45:39;;;;;;;14.70;12.03;;;;;;;11.26;60.89;102234.70;1703198;83;21120;-51
2022/11/08 04:48:06;;;;;;;14.45;12.07;;;;;;;11.23;60.91;102234.70;1706597;83;21011;-51
2022/11/08 04:50:35;;;;;;;14.30;12.20;;;;;;;11.22;60.90;102232.98;1691886;83;21035;-51
2022/11/08 04:53:02;;;;;;;13.13;11.63;;;;;;;11.22;60.98;102232.98;1693999;83;21110;-52
2022/11/08 04:55:29;;;;;;;15.85;12.63;;;;;;;11.20;60.99;102233.41;1694019;83;21126;-51
2022/11/08 04:57:58;;;;;;;16.32;13.10;;;;;;;11.19;61.01;102232.97;1747273;80;21031;-51
2022/11/08 05:00:25;;;;;;;13.15;11.78;;;;;;;11.21;61.09;102235.13;1765453;80;21035;-51
2022/11/08 05:02:53;;;;;;;14.03;11.97;;;;;;;11.22;60.97;102232.98;1750271;81;21047;-51
2022/11/08 05:05:20;;;;;;;13.55;11.68;;;;;;;11.25;60.96;102232.95;1758893;80;21047;-51
2022/11/08 05:07:47;;;;;;;15.43;11.88;;;;;;;11.28;60.97;102232.97;1764418;80;21546;-51
2022/11/08 05:10:14;;;;;;;12.68;11.38;;;;;;;11.31;60.84;102238.16;1754652;80;21077;-51
2022/11/08 05:12:41;;;;;;;16.07;12.47;;;;;;;11.35;60.66;102241.19;1751199;80;21048;-51
2022/11/08 05:15:09;;;;;;;13.50;12.10;;;;;;;11.37;60.70;102243.36;1763760;80;21097;-51
2022/11/08 05:17:37;;;;;;;17.10;12.18;;;;;;;11.38;60.63;102243.81;1748263;81;21062;-51
2022/11/08 05:25:40;;;;;;;14.60;12.70;;;;;;;11.36;60.63;102259.88;1772011;80;21058;-51
2022/11/08 05:28:08;;;;;;;13.88;11.75;;;;;;;11.36;60.56;102257.28;1774511;80;21022;-51
2022/11/08 05:30:36;;;;;;;12.75;11.43;;;;;;;11.36;60.76;102262.49;1774202;80;21064;-51
2022/11/08 05:33:02;;;;;;;13.25;10.60;;;;;;;11.38;60.88;102267.69;1754137;80;21059;-51
2022/11/08 05:35:31;;;;;;;15.20;12.10;;;;;;;11.39;60.82;102272.93;1745882;80;21082;-52
2022/11/08 05:37:59;;;;;;;15.80;11.97;;;;;;;11.42;60.89;102274.21;1750807;80;21037;-52
2022/11/08 05:40:26;;;;;;;12.88;11.28;;;;;;;11.43;60.82;102278.56;1757801;80;21133;-51
2022/11/08 05:42:53;;;;;;;12.65;10.88;;;;;;;11.45;60.84;102282.47;1769602;80;21062;-51
2022/11/08 05:45:20;;;;;;;14.28;10.68;;;;;;;11.45;60.93;102285.95;1772363;80;21135;-52
2022/11/08 05:47:48;;;;;;;14.65;11.35;;;;;;;11.46;60.96;102296.80;1770443;80;21035;-52
2022/11/08 05:50:15;;;;;;;12.58;10.38;;;;;;;11.46;61.02;102298.09;1763942;80;21085;-51
2022/11/08 05:52:42;;;;;;;12.63;10.82;;;;;;;11.48;61.08;102299.85;1766625;80;21547;-51
2022/11/08 05:55:08;;;;;;;11.25;9.75;;;;;;;11.51;61.14;102303.31;1765392;80;21557;-51
2022/11/08 05:57:35;;;;;;;11.78;10.20;;;;;;;11.56;61.00;102313.74;1751861;80;21083;-51
2022/11/08 06:00:03;;;;;;;14.20;11.03;;;;;;;11.58;60.94;102310.70;1749026;80;21114;-51
2022/11/08 06:02:32;;;;;;;12.93;11.30;;;;;;;11.61;60.92;102312.86;1750288;80;21057;-51
2022/11/08 06:04:59;;;;;;;13.22;11.73;;;;;;;11.65;61.02;102311.98;1751861;80;21047;-51
2022/11/08 06:07:26;;;;;;;13.90;12.28;;;;;;;11.70;61.20;102317.23;1763159;80;21042;-51
2022/11/08 06:09:54;;;;;;;13.25;11.68;;;;;;;11.72;61.21;102318.09;1776612;80;21012;-51
2022/11/08 06:12:20;;;;;;;14.20;12.33;;;;;;;11.75;61.27;102325.89;1750753;80;21041;-51
2022/11/08 06:14:47;;;;;;;12.90;10.43;;;;;;;11.76;61.27;102318.52;1758562;80;21002;-51
2022/11/08 06:17:14;;;;;;;12.68;11.38;;;;;;;11.74;61.37;102330.27;1761253;80;21062;-51
2022/11/08 06:19:41;;;;;;;11.68;10.45;;;;;;;11.72;61.60;102332.00;1755507;80;21037;-52
2022/11/08 06:22:07;;;;;;;13.35;11.65;;;;;;;11.74;61.81;102334.17;1751481;80;21427;-53
2022/11/08 06:24:34;;;;;;;13.65;10.23;;;;;;;11.75;61.82;102332.41;1757296;80;21043;-52
2022/11/08 06:27:00;;;;;;;12.78;11.22;;;;;;;11.78;61.76;102332.42;1755630;80;21026;-51
2022/11/08 06:29:28;;;;;;;12.65;10.93;;;;;;;11.83;61.81;102334.60;1754559;80;21062;-51
2022/11/08 06:31:57;;;;;;;11.85;10.50;;;;;;;11.88;61.87;102335.45;1752716;80;21059;-52
2022/11/08 06:34:24;;;;;;;10.18;9.18;;;;;;;11.92;61.75;102335.87;1751200;80;21004;-51
2022/11/08 06:36:51;;;;;;;11.83;10.45;;;;;;;11.94;61.68;102340.22;1750234;81;20978;-51
2022/11/08 06:39:19;;;;;;;13.13;10.65;;;;;;;12.00;61.64;102336.28;1756201;80;21042;-52
2022/11/08 06:41:45;;;;;;;11.40;9.88;;;;;;;12.04;61.33;102340.62;1753168;81;21074;-52
2022/11/08 06:44:12;;;;;;;11.75;9.65;;;;;;;12.09;61.08;102348.45;1761228;80;20990;-52
2022/11/08 06:46:39;;;;;;;12.78;10.45;;;;;;;12.11;60.89;102350.19;1768348;80;21022;-51
2022/11/08 06:49:07;;;;;;;12.28;10.45;;;;;;;12.18;60.60;102351.01;1757365;80;21039;-51
2022/11/08 06:51:34;;;;;;;11.43;10.32;;;;;;;12.21;60.42;102345.80;1747727;81;21109;-51
2022/11/08 06:54:02;;;;;;;11.85;10.13;;;;;;;12.24;60.29;102342.73;1750078;80;21087;-51
2022/11/08 06:56:29;;;;;;;11.50;10.30;;;;;;;12.31;60.11;102347.50;1754779;81;21112;-51
2022/11/08 06:58:56;;;;;;;12.20;9.75;;;;;;;12.32;59.82;102344.03;1754125;80;20996;-51
2022/11/08 07:01:23;;;;;;;10.43;8.78;;;;;;;12.39;59.65;102348.77;1760272;80;21060;-51
2022/11/08 07:03:50;;;;;;;11.75;10.30;;;;;;;12.41;59.34;102341.79;1768524;80;21081;-52
2022/11/08 07:06:16;;;;;;;11.50;8.98;;;;;;;12.46;59.26;102344.84;1772894;80;21542;-51
2022/11/08 07:08:43;;;;;;;10.63;9.15;;;;;;;12.52;59.13;102346.55;1757478;80;21057;-51
2022/11/08 07:11:09;;;;;;;10.70;8.78;;;;;;;12.56;58.96;102344.34;1753495;80;21069;-51
2022/11/08 07:13:36;;;;;;;11.12;9.90;;;;;;;12.59;58.79;102349.11;1749821;80;21026;-52
2022/11/08 07:16:04;;;;;;;9.98;8.85;;;;;;;12.63;58.71;102349.52;1753194;80;21065;-51
2022/11/08 07:18:31;;;;;;;11.22;9.25;;;;;;;12.66;58.57;102353.44;1754075;80;21045;-51
2022/11/08 07:21:00;;;;;;;10.98;9.48;;;;;;;12.66;58.36;102348.22;1758646;80;21043;-52
2022/11/08 07:23:27;;;;;;;11.60;9.93;;;;;;;12.65;58.30;102345.16;1700548;84;21074;-51
2022/11/08 07:25:55;;;;;;;10.82;9.60;;;;;;;12.67;58.39;102347.36;1703828;82;21539;-52
2022/11/08 07:28:22;;;;;;;13.70;9.48;;;;;;;12.72;58.31;102350.80;1703705;83;21133;-51
2022/11/08 07:30:49;;;;;;;11.35;10.20;;;;;;;12.76;57.98;102352.51;1717233;82;21054;-51
2022/11/08 07:33:15;;;;;;;11.65;9.38;;;;;;;12.78;57.88;102348.14;1694659;83;21062;-52
2022/11/08 07:35:46;;;;;;;13.88;9.50;;;;;;;12.79;57.84;102342.06;1716007;83;21050;-52
2022/11/08 07:38:12;;;;;;;11.10;9.78;;;;;;;12.81;57.69;102340.73;1718285;83;21054;-52
2022/11/08 07:40:39;;;;;;;10.80;9.28;;;;;;;12.82;57.61;102338.53;1692006;82;21113;-51
2022/11/08 07:43:06;;;;;;;11.05;9.95;;;;;;;12.84;57.63;102342.88;1712811;82;21543;-51
2022/11/08 07:45:33;;;;;;;10.80;9.68;;;;;;;12.87;57.60;102345.50;1695565;83;21062;-51
2022/11/08 07:48:03;;;;;;;10.48;9.38;;;;;;;12.91;57.54;102338.50;1708520;82;21097;-51
2022/11/08 07:50:30;;;;;;;10.32;9.28;;;;;;;12.93;57.39;102342.84;1708651;82;21074;-52
2022/11/08 07:52:57;;;;;;;11.65;10.55;;;;;;;12.97;57.33;102341.94;1699414;82;21090;-51
2022/11/08 07:55:25;;;;;;;11.45;10.25;;;;;;;13.04;57.07;102351.49;1689268;82;21064;-50
2022/11/08 07:57:55;;;;;;;10.98;9.83;;;;;;;13.06;57.04;102345.81;1686002;82;21519;-51
2022/11/08 08:00:21;;;;;;;17.05;10.78;;;;;;;13.08;57.02;102345.37;1713855;82;21126;-51
2022/11/08 08:02:47;;;;;;;11.65;10.35;;;;;;;13.11;57.07;102346.26;1713255;82;21105;-51
2022/11/08 08:05:15;;;;;;;11.63;10.38;;;;;;;13.11;57.02;102341.87;1702364;83;21066;-51
2022/11/08 08:07:41;;;;;;;12.60;10.48;;;;;;;13.10;56.88;102341.89;1691937;83;21047;-51
2022/11/08 08:10:10;;;;;;;12.30;10.53;;;;;;;13.10;57.00;102339.28;1707280;83;21529;-50
2022/11/08 08:12:37;;;;;;;14.45;11.05;;;;;;;13.12;57.08;102340.13;1710104;82;21014;-51
2022/11/08 08:15:05;;;;;;;16.52;11.88;;;;;;;13.12;57.01;102336.21;1719976;83;22596;-50
2022/11/08 08:17:34;;;;;;;16.40;12.25;;;;;;;13.10;57.04;102343.20;1724730;82;21538;-52
2022/11/08 08:20:01;;;;;;;12.35;11.03;;;;;;;13.05;56.94;102343.22;1738981;80;21522;-52
2022/11/08 08:22:28;;;;;;;12.40;11.12;;;;;;;12.98;57.00;102339.74;1759334;80;21047;-52
2022/11/08 08:24:55;;;;;;;13.62;11.85;;;;;;;12.94;57.12;102341.95;1740551;81;21061;-51
2022/11/08 08:27:22;;;;;;;12.20;11.00;;;;;;;12.90;57.29;102342.84;1756295;80;21074;-51
2022/11/08 08:29:49;;;;;;;12.47;11.28;;;;;;;12.93;57.63;102345.45;1760230;80;21558;-51
2022/11/08 08:32:16;;;;;;;13.53;12.15;;;;;;;12.96;57.61;102342.80;1757746;80;21010;-50
2022/11/08 08:34:44;;;;;;;12.05;10.82;;;;;;;13.03;57.71;102346.25;1761336;80;21022;-51
2022/11/08 08:37:14;;;;;;;13.68;11.50;;;;;;;13.11;57.62;102335.80;1751643;80;21086;-51
2022/11/08 08:39:41;;;;;;;13.65;12.25;;;;;;;13.18;57.55;102335.73;1755037;80;21031;-51
2022/11/08 08:42:07;;;;;;;11.85;10.75;;;;;;;13.24;57.36;102332.20;1745673;80;21546;-50
2022/11/08 08:44:34;;;;;;;15.53;11.90;;;;;;;13.29;57.45;102335.66;1762090;80;21014;-51
2022/11/08 08:47:00;;;;;;;13.58;11.12;;;;;;;13.36;57.46;102335.59;1752245;80;21110;-51
2022/11/08 08:49:27;;;;;;;11.95;10.80;;;;;;;13.37;57.64;102336.46;1755554;80;21563;-51
2022/11/08 08:51:54;;;;;;;12.23;10.93;;;;;;;13.39;57.73;102332.09;1744784;81;21138;-51
2022/11/08 08:54:21;;;;;;;12.20;11.00;;;;;;;13.43;57.70;102336.41;1753231;81;21030;-51
2022/11/08 08:56:48;;;;;;;11.12;10.05;;;;;;;13.45;57.86;102334.22;1755599;80;21011;-51
2022/11/08 08:59:16;;;;;;;14.63;10.95;;;;;;;13.48;57.74;102331.98;1755030;81;21075;-51
2022/11/08 09:01:43;;;;;;;12.78;11.55;;;;;;;13.48;57.85;102326.76;1759543;80;21078;-52
2022/11/08 09:04:10;;;;;;;11.85;10.40;;;;;;;13.54;57.87;102330.19;1772497;80;20986;-51
2022/11/08 09:06:37;;;;;;;11.65;10.45;;;;;;;13.60;57.70;102317.52;1750117;80;21039;-50
2022/11/08 09:09:03;;;;;;;13.90;10.72;;;;;;;13.67;57.60;102319.17;1756317;80;21108;-52
2022/11/08 09:11:30;;;;;;;11.75;10.55;;;;;;;13.70;57.44;102315.23;1756260;80;20991;-51
2022/11/08 09:13:56;;;;;;;10.95;9.93;;;;;;;13.73;57.31;102317.80;1769882;80;21572;-51
2022/11/08 09:16:23;;;;;;;9.93;8.90;;;;;;;13.76;57.42;102316.48;1758628;80;21049;-51
2022/11/08 09:18:50;;;;;;;10.75;9.55;;;;;;;13.82;57.40;102312.06;1754554;80;21569;-51
2022/11/08 09:21:17;;;;;;;9.58;8.60;;;;;;;13.88;57.10;102313.73;1752707;80;21505;-51
2022/11/08 09:23:44;;;;;;;11.20;9.83;;;;;;;13.96;57.06;102318.88;1763562;80;21565;-51
2022/11/08 09:26:11;;;;;;;10.35;9.23;;;;;;;13.99;56.59;102319.73;1765004;80;21038;-51
2022/11/08 09:28:38;;;;;;;10.35;8.30;;;;;;;13.99;56.57;102319.73;1764439;80;21027;-51
2022/11/08 09:31:08;;;;;;;7.90;7.20;;;;;;;14.02;56.77;102320.99;1759914;80;20975;-52
2022/11/08 09:33:36;;;;;;;6.30;3.10;;;;;;;14.09;56.72;102314.82;1717230;81;21521;-51
2022/11/08 09:36:05;;;;;;;3.62;3.00;;;;;;;14.22;56.11;102305.91;1719675;82;21588;-51
2022/11/08 09:38:33;;;;;;;4.87;4.00;;;;;;;14.38;55.26;102306.20;1713603;82;21133;-50
2022/11/08 09:41:19;;;;;;;4.08;3.20;;;;;;;14.52;54.77;102308.20;1718859;82;21046;-50
2022/11/08 09:44:26;;;;;;;3.50;2.67;;;;;;;14.63;53.78;102308.90;1724567;81;21003;-51
2022/11/08 09:46:56;;;;;;;3.33;2.83;;;;;;;14.78;53.19;102306.94;1702058;82;21534;-51
2022/11/08 09:49:37;;;;;;;3.33;2.60;;;;;;;14.90;52.74;102308.10;1722890;82;21565;-51
2022/11/08 09:52:04;;;;;;;4.37;2.83;;;;;;;14.97;52.31;102305.80;1729121;81;21374;-51
2022/11/08 09:54:36;;;;;;;3.67;2.47;;;;;;;14.97;52.10;102308.41;1716889;82;21021;-51
2022/11/08 09:57:04;;;;;;;;;;;;;;;15.03;52.02;102308.31;1737757;81;21175;-52
2022/11/08 09:59:48;;;;;;;4.75;2.67;;;;;;;15.10;51.96;102307.34;1716753;82;20134;-50
2022/11/08 10:02:20;;;;;;;3.80;2.85;;;;;;;15.19;51.86;102304.55;1683214;84;21005;-51
2022/11/08 10:04:57;;;;;;;3.60;2.52;;;;;;;15.27;51.38;102297.46;1684816;84;21055;-51
2022/11/08 10:08:01;;;;;;;4.28;3.27;;;;;;;15.35;51.06;102294.26;1683058;84;21519;-51
2022/11/08 10:10:43;;;;;;;3.67;2.85;;;;;;;15.41;50.67;102293.69;1669603;84;21031;-51
2022/11/08 10:13:45;;;;;;;6.25;3.30;;;;;;;15.48;50.35;102301.52;1630540;86;21106;-51
2022/11/08 10:16:38;;;;;;;4.30;2.85;;;;;;;15.53;50.01;102295.28;1617716;86;21559;-51
2022/11/08 10:19:28;;;;;;;;;;;;;;;15.57;49.79;102294.33;1577390;89;21165;-50
2022/11/08 10:22:01;;;;;;;5.97;2.77;;;;;;;15.60;49.85;102299.98;1572222;89;20193;-50
2022/11/08 10:24:35;;;;;;;3.37;3.05;;;;;;;15.60;49.73;102296.88;1570386;89;21548;-50
2022/11/08 10:27:03;;;;;;;3.30;2.67;;;;;;;15.61;49.48;102293.38;1554590;89;21539;-50
2022/11/08 10:29:37;;;;;;;4.10;3.45;;;;;;;15.61;49.44;102292.07;1568249;89;21190;-50
2022/11/08 10:32:18;;;;;;;3.40;2.72;;;;;;;15.61;49.38;102292.07;1555963;90;21066;-50
2022/11/08 10:34:58;;;;;;;4.83;2.98;;;;;;;15.62;49.27;102289.84;1503019;94;21116;-50
2022/11/08 10:37:25;;;;;;;3.80;2.50;;;;;;;15.66;49.19;102293.30;1415055;100;21137;-50
2022/11/08 10:40:14;;;;;;;4.35;2.85;;;;;;;15.69;49.11;102283.61;1409123;100;21961;-51
2022/11/08 10:43:05;;;;;;;4.30;2.77;;;;;;;15.72;49.11;102284.88;1408574;101;21278;-50
2022/11/08 10:45:33;;;;;;;;;;;;;;;15.75;48.94;102279.99;1368723;103;21211;-50
2022/11/08 10:47:59;;;;;;;5.22;3.12;;;;;;;15.79;48.83;102281.22;1360729;103;20191;-51
2022/11/08 10:50:34;;;;;;;8.30;3.50;;;;;;;15.79;48.75;102283.84;1348401;104;21159;-51
2022/11/08 10:53:02;;;;;;;3.50;2.90;;;;;;;15.80;48.82;102285.59;1306147;108;21171;-51
2022/11/08 10:55:37;;;;;;;3.83;2.83;;;;;;;15.81;48.64;102280.75;1314523;108;21709;-51
2022/11/08 10:58:01;;;;;;;4.92;3.08;;;;;;;15.81;48.57;102284.69;1333379;106;21160;-51
2022/11/08 11:00:32;;;;;;;3.67;3.10;;;;;;;15.79;48.69;102282.53;1308213;108;21154;-52
2022/11/08 11:03:12;;;;;;;4.57;2.60;;;;;;;15.78;48.53;102282.14;1314572;108;21224;-51
2022/11/08 11:05:42;;;;;;;4.28;3.30;;;;;;;15.78;48.56;102278.64;1292570;109;21185;-51
2022/11/08 11:08:13;;;;;;;4.05;2.70;;;;;;;15.78;48.55;102282.14;1313778;106;21213;-50
2022/11/08 11:10:44;;;;;;;4.83;2.90;;;;;;;15.79;48.55;102285.16;1343222;105;21694;-51
2022/11/08 11:13:25;;;;;;;3.98;3.08;;;;;;;15.78;48.52;102273.39;1314804;107;21265;-50
2022/11/08 11:16:00;;;;;;;3.45;3.15;;;;;;;15.78;48.43;102278.20;1302834;109;21204;-53
2022/11/08 11:18:38;;;;;;;3.95;2.95;;;;;;;15.78;48.46;102278.20;1304544;109;21238;-50
2022/11/08 11:21:13;;;;;;;3.40;3.10;;;;;;;15.76;48.54;102279.98;1310013;107;21256;-51
2022/11/08 11:23:46;;;;;;;3.33;2.40;;;;;;;15.74;48.50;102276.53;1321759;108;21263;-51
2022/11/08 11:26:30;;;;;;;3.42;2.50;;;;;;;15.73;48.78;102276.53;1312089;108;21663;-51
2022/11/08 11:29:06;;;;;;;4.00;2.75;;;;;;;15.72;48.73;102272.20;1359976;104;21162;-50
2022/11/08 11:31:41;;;;;;;4.47;2.95;;;;;;;15.75;48.62;102272.99;1416285;98;21178;-50
2022/11/08 11:34:41;;;;;;;3.62;2.87;;;;;;;15.75;48.34;102266.43;1528535;91;21601;-50
2022/11/08 11:37:13;;;;;;;6.75;3.15;;;;;;;15.78;48.37;102272.08;1563522;90;21113;-50
2022/11/08 11:40:04;;;;;;;5.30;3.00;;;;;;;15.79;48.41;102270.72;1561854;90;21121;-49
2022/11/08 11:42:55;;;;;;;5.87;3.08;;;;;;;15.81;48.40;102267.63;1538895;91;21149;-50
2022/11/08 11:45:52;;;;;;;4.03;3.17;;;;;;;15.83;48.39;102267.14;1547037;91;21097;-51
2022/11/08 11:48:27;;;;;;;7.30;3.33;;;;;;;15.82;48.26;102261.50;1543590;91;21560;-51